Flight Track Log - Related Links

Times and Time Zones

All times are in EDT time to prevent confusion due to time zone crossing. See the AWI3650 flight status page for this flight to view local times or setup timezone preferences in your user account.

Time Position Orientation Groundspeed Altitude Reporting Facility
EDT Latitude Longitude Course Direction KTS MPH feet Rate Location/Type
Sat 01:45:49 PM 40.0022 -82.9156 84° East 186 214 1,500  Level Indianapolis Center
Sat 01:46:25 PM 39.9919 -82.9444 245° Southwest 155 178 3,000 1,301 Climbing Indianapolis Center
Sat 01:47:12 PM 39.9753 -82.9864 243° Southwest 178 205 3,300 2,111 Climbing Indianapolis Center
Sat 01:48:13 PM 39.9292 -83.0075 199° South 209 241 6,800 2,390 Climbing Indianapolis Center
Sat 01:49:00 PM 40.0564 -82.3256 79° East  Level FlightAware Approximate
Sat 01:49:15 PM 39.9117 -82.9128 104° East 280 322 8,200  Level Indianapolis Center
Sat 01:50:00 PM 40.0779 -82.1853 79° East  Level FlightAware Approximate
Sat 01:50:16 PM 39.9036 -82.8003 95° East 307 353 10,700  Level Indianapolis Center
Sat 01:51:00 PM 40.0906 -82.0559 84° East  Level FlightAware Approximate
Sat 01:51:18 PM 39.9222 -82.6828 78° East 330 380 13,000  Level Indianapolis Center
Sat 01:52:19 PM 39.9422 -82.5547 78° East 352 405 14,800 1,854 Climbing Indianapolis Center
Sat 01:53:21 PM 39.9656 -82.4158 78° East 384 442 16,800 1,756 Climbing Indianapolis Center
Sat 01:54:22 PM 39.9903 -82.2719 77° East 400 460 18,400 1,707 Climbing Indianapolis Center
Sat 01:55:24 PM 40.0192 -82.0967 78° East 419 482 20,300 1,659 Climbing Indianapolis Center
Sat 01:56:25 PM 40.0442 -81.9411 78° East 432 497 21,800 1,463 Climbing Indianapolis Center
Sat 01:57:27 PM 40.0697 -81.7842 78° East 440 506 23,300 1,463 Climbing Indianapolis Center
Sat 01:58:28 PM 40.0950 -81.6322 78° East 445 512 24,800 1,415 Climbing Indianapolis Center
Sat 01:59:30 PM 40.1197 -81.4714 79° East 448 516 26,200 1,403 Climbing Indianapolis Center
Sat 01:59:45 PM 40.1308 -81.4167 75° East 441 507 26,600 1,440 Climbing Cleveland Center
Sat 02:00:45 PM 40.1547 -81.2594 79° East 441 507 28,000 1,200 Climbing Cleveland Center
Sat 02:01:45 PM 40.1806 -81.0994 78° East 446 513 29,000 500 Climbing Cleveland Center
Sat 02:02:45 PM 40.2019 -80.9581 79° East 451 519 29,000  Level Cleveland Center
Sat 02:03:45 PM 40.2275 -80.7953 78° East 451 519 29,000  Level Cleveland Center
Sat 02:04:45 PM 40.2506 -80.6403 79° East 446 513 29,000  Level Cleveland Center
Sat 02:05:45 PM 40.2653 -80.4797 83° East 446 513 29,000  Level Cleveland Center
Sat 02:06:45 PM 40.2692 -80.3083 88° East 440 506 29,000  Level Cleveland Center
Sat 02:07:45 PM 40.2728 -80.1478 88° East 434 499 29,000  Level Cleveland Center
Sat 02:08:45 PM 40.2825 -80.0033 85° East 439 505 29,000  Level Cleveland Center
Sat 02:09:45 PM 40.2878 -79.8456 87° East 439 505 29,000  Level Cleveland Center
Sat 02:10:45 PM 40.2931 -79.6822 88° East 439 505 29,000  Level Cleveland Center
Sat 02:11:45 PM 40.2978 -79.5242 88° East 439 505 29,000  Level Cleveland Center
Sat 02:12:45 PM 40.3025 -79.3608 88° East 439 505 29,000  Level Cleveland Center
Sat 02:13:45 PM 40.3047 -79.2056 89° East 439 505 29,000  Level Cleveland Center
Sat 02:14:45 PM 40.3069 -79.0447 89° East 434 499 29,000  Level Cleveland Center
Sat 02:15:45 PM 40.3069 -78.8897 90° East 434 499 29,000  Level Cleveland Center
Sat 02:16:45 PM 40.3106 -78.7289 88° East 434 499 29,000  Level Cleveland Center
Sat 02:17:45 PM 40.3100 -78.5764 90° East 434 499 29,000  Level Cleveland Center
Sat 02:18:45 PM 40.3114 -78.4211 89° East 424 488 29,000 -839 Level Cleveland Center
Sat 02:20:58 PM 40.3125 -78.0803 90° East 433 498 26,300 -1,237 Descending New York Center
Sat 02:21:59 PM 40.3117 -77.9222 90° East 427 491 25,000 -950 Descending New York Center
Sat 02:22:58 PM 40.3086 -77.7639 91° East 427 491 24,400 -1,210 Descending New York Center
Sat 02:23:58 PM 40.3089 -77.5814 90° East 441 507 22,600 -1,623 Descending New York Center
Sat 02:25:00 PM 40.3058 -77.4178 91° East 447 514 21,100 -1,412 Descending New York Center
Sat 02:25:57 PM 40.2861 -77.2825 101° East 436 502 19,800 -1,424 Descending New York Center
Sat 02:26:58 PM 40.2694 -77.1314 98° East 419 482 18,300 -1,400 Descending New York Center
Sat 02:27:57 PM 40.2467 -76.9714 101° East 412 474 17,000 -650 Descending New York Center
Sat 02:28:58 PM 40.2292 -76.8231 99° East 413 475 17,000  Level New York Center
Sat 02:29:58 PM 40.2128 -76.6939 99° East 408 470 17,000 -496 Level New York Center
Sat 02:30:59 PM 40.1894 -76.5369 101° East 403 464 16,000 -992 Descending New York Center
Sat 02:31:59 PM 40.1711 -76.3967 100° East 398 458 15,000 -847 Descending New York Center
Sat 02:32:24 PM 40.1633 -76.3383 100° East 393 452 14,800 -1,200 Descending FAA TRACON SMA TRACON (SMA)
Sat 02:32:44 PM 40.1567 -76.2853 99° East 387 445 14,100 -1,950 Descending FAA TRACON SMA TRACON (SMA)
Sat 02:33:04 PM 40.1511 -76.2444 100° East 377 434 13,500 -1,650 Descending FAA TRACON SMA TRACON (SMA)
Sat 02:33:24 PM 40.1458 -76.2042 100° East 370 426 13,000 -1,950 Descending FAA TRACON SMA TRACON (SMA)
Sat 02:33:44 PM 40.1389 -76.1550 100° East 362 417 12,200 -1,950 Descending FAA TRACON SMA TRACON (SMA)
Sat 02:34:04 PM 40.1328 -76.1164 102° East 356 410 11,700 -1,650 Descending FAA TRACON SMA TRACON (SMA)
Sat 02:34:24 PM 40.1275 -76.0781 100° East 351 404 11,100 -1,950 Descending FAA TRACON SMA TRACON (SMA)
Sat 02:34:44 PM 40.1206 -76.0308 101° East 347 399 10,400 -1,800 Descending FAA TRACON SMA TRACON (SMA)
Sat 02:35:04 PM 40.1158 -75.9939 99° East 338 389 9,900 -1,350 Descending FAA TRACON SMA TRACON (SMA)
Sat 02:35:24 PM 40.1103 -75.9583 102° East 329 379 9,500 -1,500 Descending FAA TRACON SMA TRACON (SMA)
Sat 02:35:44 PM 40.1050 -75.9142 99° East 322 371 8,900 -1,650 Descending FAA TRACON SMA TRACON (SMA)
Sat 02:36:04 PM 40.0997 -75.8806 102° East 314 361 8,400 -1,200 Descending FAA TRACON SMA TRACON (SMA)
Sat 02:36:24 PM 40.0953 -75.8467 100° East 311 358 8,100 -600 Descending FAA TRACON SMA TRACON (SMA)
Sat 02:36:44 PM 40.0889 -75.8047 101° East 307 353 8,000 -150 Descending FAA TRACON SMA TRACON (SMA)
Sat 02:37:04 PM 40.0842 -75.7725 101° East 311 358 8,000  Level FAA TRACON SMA TRACON (SMA)
Sat 02:37:24 PM 40.0803 -75.7353 98° East 314 361 8,000  Level FAA TRACON SMA TRACON (SMA)
Sat 02:37:44 PM 40.0789 -75.6911 92° East 312 359 8,000  Level FAA TRACON SMA TRACON (SMA)
Sat 02:38:04 PM 40.0775 -75.6558 93° East 312 359 8,000  Level FAA TRACON SMA TRACON (SMA)
Sat 02:38:24 PM 40.0758 -75.6203 93° East 317 365 8,000  Level FAA TRACON SMA TRACON (SMA)
Sat 02:38:44 PM 40.0725 -75.5775 96° East 315 362 8,000  Level FAA TRACON SMA TRACON (SMA)
Sat 02:39:04 PM 40.0722 -75.5417 91° East 317 365 8,000  Level FAA TRACON SMA TRACON (SMA)
Sat 02:39:24 PM 40.0703 -75.5053 94° East 318 366 8,000  Level FAA TRACON SMA TRACON (SMA)
Sat 02:39:44 PM 40.0686 -75.4697 93° East 318 366 8,000  Level FAA TRACON SMA TRACON (SMA)
Sat 02:40:04 PM 40.0664 -75.4253 94° East 317 365 8,000  Level FAA TRACON SMA TRACON (SMA)
Sat 02:40:24 PM 40.0647 -75.3900 94° East 316 364 8,000  Level FAA TRACON SMA TRACON (SMA)
Sat 02:40:44 PM 40.0631 -75.3567 94° East 319 367 8,000  Level FAA TRACON SMA TRACON (SMA)
Sat 02:41:04 PM 40.0606 -75.3103 94° East 316 364 8,000 -450 Level FAA TRACON SMA TRACON (SMA)
Sat 02:41:24 PM 40.0589 -75.2747 93° East 317 365 7,700 -1,350 Descending FAA TRACON SMA TRACON (SMA)
Sat 02:41:44 PM 40.0542 -75.2428 101° East 316 364 7,100 -2,100 Descending FAA TRACON SMA TRACON (SMA)
Sat 02:42:04 PM 40.0328 -75.2089 129° Southeast 299 344 6,300 -1,650 Descending FAA TRACON SMA TRACON (SMA)
Sat 02:42:24 PM 40.0117 -75.1914 148° Southeast 283 326 6,000 -450 Descending FAA TRACON SMA TRACON (SMA)
Sat 02:42:44 PM 39.9981 -75.1692 129° Southeast 262 302 6,000  Level FAA TRACON SMA TRACON (SMA)
Sat 02:43:04 PM 39.9936 -75.1347 100° East 242 278 6,000 -150 Level FAA TRACON SMA TRACON (SMA)
Sat 02:43:24 PM 39.9928 -75.1094 92° East 222 255 5,900 -600 Descending FAA TRACON SMA TRACON (SMA)
Sat 02:43:44 PM 39.9939 -75.0872 86° East 201 231 5,600 -1,200 Descending FAA TRACON SMA TRACON (SMA)
Sat 02:44:04 PM 39.9967 -75.0656 80° East 198 228 5,100 -1,650 Descending FAA TRACON SMA TRACON (SMA)
Sat 02:44:24 PM 40.0011 -75.0400 77° East 192 221 4,500 -1,500 Descending FAA TRACON SMA TRACON (SMA)
Sat 02:44:44 PM 40.0064 -75.0203 71° East 201 231 4,100 -750 Descending FAA TRACON SMA TRACON (SMA)
Sat 02:45:04 PM 40.0106 -74.9978 76° East 194 223 4,000  Descending FAA TRACON SMA TRACON (SMA)
Sat 02:45:24 PM 40.0083 -74.9708 96° East 201 231 4,100 -150 Climbing FAA TRACON SMA TRACON (SMA)
Sat 02:45:44 PM 39.9950 -74.9578 143° Southeast 206 237 3,900 -150 Descending FAA TRACON SMA TRACON (SMA)
Sat 02:46:04 PM 39.9803 -74.9628 195° South 183 211 4,000 150 Climbing FAA TRACON SMA TRACON (SMA)
Sat 02:46:24 PM 39.9667 -74.9786 222° Southwest 174 200 4,000  Level FAA TRACON SMA TRACON (SMA)
Sat 02:46:44 PM 39.9558 -74.9922 224° Southwest 173 199 4,000  Level FAA TRACON SMA TRACON (SMA)
Sat 02:47:04 PM 39.9461 -75.0069 229° Southwest 169 194 4,000 -300 Level FAA TRACON SMA TRACON (SMA)
Sat 02:47:24 PM 39.9369 -75.0264 238° Southwest 166 191 3,800 -1,050 Descending FAA TRACON SMA TRACON (SMA)
Sat 02:47:44 PM 39.9300 -75.0417 239° Southwest 161 185 3,300 -1,350 Descending FAA TRACON SMA TRACON (SMA)
Sat 02:48:04 PM 39.9231 -75.0575 240° Southwest 162 186 2,900 -1,050 Descending FAA TRACON SMA TRACON (SMA)
Sat 02:48:24 PM 39.9158 -75.0775 245° Southwest 160 184 2,600 -900 Descending FAA TRACON SMA TRACON (SMA)

Login

Don't have an account? Register now (free) for customized features, flight alerts, and more!